Time;durP1;ratioP1;P1;durP2;ratioP2;P2;SDS_P1;SDS_P2;PMS_P1;PMS_P2;Temp;Humidity;BMP_temperature;BMP_pressure;BME280_temperature;BME280_humidity;BME280_pressure;Samples;Min_cycle;Max_cycle;Signal;HPM_P1;HPM_P2
2022/11/13 00:01:38;;;;;;;21.98;15.75;;;4.40;99.90;;;;;;5027638;28;20040;-64
2022/11/13 00:04:03;;;;;;;21.92;14.30;;;4.40;99.90;;;;;;5029498;28;20647;-64
2022/11/13 00:06:29;;;;;;;23.77;15.05;;;4.40;99.90;;;;;;5027660;28;20072;-64
2022/11/13 00:08:55;;;;;;;23.02;15.20;;;4.40;99.90;;;;;;5030621;28;20072;-64
2022/11/13 00:11:21;;;;;;;22.83;15.73;;;4.40;99.90;;;;;;5033711;28;20060;-64
2022/11/13 00:13:47;;;;;;;22.75;15.57;;;4.40;99.90;;;;;;5035341;28;20040;-64
2022/11/13 00:16:16;;;;;;;22.25;15.10;;;4.40;99.90;;;;;;5041992;28;20546;-64
2022/11/13 00:18:42;;;;;;;22.83;16.13;;;4.40;99.90;;;;;;5043372;28;20044;-64
2022/11/13 00:21:12;;;;;;;22.40;15.30;;;4.40;99.90;;;;;;5030075;28;20052;-64
2022/11/13 00:23:38;;;;;;;22.98;15.52;;;4.40;99.90;;;;;;5042478;28;20055;-64
2022/11/13 00:26:05;;;;;;;22.83;15.48;;;4.40;99.90;;;;;;5037445;28;20049;-64
2022/11/13 00:28:31;;;;;;;25.33;16.23;;;4.40;99.90;;;;;;5030100;28;20164;-64
2022/11/13 00:30:59;;;;;;;21.88;14.77;;;4.40;99.90;;;;;;5038777;28;20532;-64
2022/11/13 00:33:24;;;;;;;22.60;15.52;;;4.40;99.90;;;;;;5028730;28;20037;-64
2022/11/13 00:35:50;;;;;;;24.27;16.33;;;4.40;99.90;;;;;;5037891;28;20847;-64
2022/11/13 00:38:15;;;;;;;22.63;16.73;;;4.40;99.90;;;;;;5047078;28;20045;-64
2022/11/13 00:40:41;;;;;;;30.25;19.00;;;4.40;99.90;;;;;;5040375;28;20041;-64
2022/11/13 00:43:07;;;;;;;25.63;17.25;;;4.40;99.90;;;;;;5028975;28;20047;-64
2022/11/13 00:45:32;;;;;;;27.55;17.23;;;4.50;99.90;;;;;;5046150;28;20037;-64
2022/11/13 00:47:58;;;;;;;20.45;14.43;;;4.50;99.90;;;;;;5039248;28;20037;-64
2022/11/13 00:50:23;;;;;;;26.15;17.85;;;4.60;99.90;;;;;;5019019;28;20444;-64
2022/11/13 00:52:49;;;;;;;26.25;17.75;;;4.60;99.90;;;;;;5035184;28;20385;-65
2022/11/13 00:55:15;;;;;;;29.55;18.77;;;4.60;99.90;;;;;;5034034;28;20067;-64
2022/11/13 00:57:40;;;;;;;29.08;18.98;;;4.60;99.90;;;;;;5045100;28;20033;-64
2022/11/13 01:00:06;;;;;;;30.90;18.67;;;4.60;99.90;;;;;;5032484;28;20110;-64
2022/11/13 01:02:32;;;;;;;38.65;21.85;;;4.70;99.90;;;;;;5028192;28;20116;-64
2022/11/13 01:04:57;;;;;;;32.95;20.00;;;4.70;99.90;;;;;;5036860;28;20129;-64
2022/11/13 01:07:23;;;;;;;39.88;21.23;;;4.70;99.90;;;;;;5054456;28;20041;-64
2022/11/13 01:09:50;;;;;;;31.85;19.27;;;4.70;99.90;;;;;;5025849;28;20037;-64
2022/11/13 01:12:15;;;;;;;29.73;19.02;;;4.70;99.90;;;;;;5029782;28;20453;-64
2022/11/13 01:14:41;;;;;;;29.88;19.10;;;4.80;99.90;;;;;;5038040;28;20033;-64
2022/11/13 01:17:07;;;;;;;27.38;17.52;;;4.80;99.90;;;;;;5041069;28;20037;-64
2022/11/13 01:19:32;;;;;;;23.52;16.20;;;4.80;99.90;;;;;;5032387;28;20039;-64
2022/11/13 01:21:58;;;;;;;24.13;17.15;;;4.80;99.90;;;;;;5037520;28;20450;-64
2022/11/13 01:24:23;;;;;;;31.90;18.35;;;4.70;99.90;;;;;;5037903;28;20060;-65
2022/11/13 01:26:49;;;;;;;23.85;16.38;;;4.70;99.90;;;;;;5040577;28;20119;-64
2022/11/13 01:29:15;;;;;;;25.30;17.13;;;4.70;99.90;;;;;;5030373;28;20037;-64
2022/11/13 01:31:40;;;;;;;28.77;17.90;;;4.70;99.90;;;;;;5032525;28;20048;-64
2022/11/13 01:34:06;;;;;;;27.38;17.15;;;4.70;99.90;;;;;;5033659;28;20036;-64
2022/11/13 01:36:31;;;;;;;29.08;18.17;;;4.70;99.90;;;;;;5044595;28;20070;-64
2022/11/13 01:38:57;;;;;;;29.55;18.30;;;4.70;99.90;;;;;;5043242;28;20048;-64
2022/11/13 01:41:25;;;;;;;28.23;17.35;;;4.70;99.90;;;;;;5032187;28;20045;-64
2022/11/13 01:43:53;;;;;;;32.00;18.00;;;4.70;99.90;;;;;;5028089;28;20088;-64
2022/11/13 01:46:21;;;;;;;25.05;17.30;;;4.70;99.90;;;;;;5036755;28;20061;-64
2022/11/13 01:49:00;;;;;;;27.63;17.15;;;4.80;99.90;;;;;;5031882;28;20047;-65
2022/11/13 01:51:40;;;;;;;21.83;15.43;;;4.70;99.90;;;;;;5029088;28;20044;-64
2022/11/13 01:54:10;;;;;;;22.85;15.70;;;4.70;99.90;;;;;;5032095;28;20040;-64
2022/11/13 01:56:36;;;;;;;26.55;17.08;;;4.70;99.90;;;;;;5034714;28;20029;-64
2022/11/13 01:59:09;;;;;;;28.52;17.45;;;4.60;99.90;;;;;;5036617;28;20041;-64
2022/11/13 02:01:35;;;;;;;23.15;16.20;;;4.60;99.90;;;;;;5027593;28;20128;-64
2022/11/13 02:04:01;;;;;;;24.50;16.90;;;4.60;99.90;;;;;;5026416;28;20140;-64
2022/11/13 02:06:32;;;;;;;26.25;16.58;;;4.50;99.90;;;;;;5042045;28;20776;-64
2022/11/13 02:08:57;;;;;;;25.88;16.48;;;4.50;99.90;;;;;;5028203;28;20052;-64
2022/11/13 02:11:24;;;;;;;27.00;17.73;;;4.50;99.90;;;;;;5029910;28;20041;-65
2022/11/13 02:13:50;;;;;;;34.08;19.25;;;4.50;99.90;;;;;;5031442;28;20040;-64
2022/11/13 02:16:16;;;;;;;28.10;16.55;;;4.50;99.90;;;;;;5033418;28;20041;-64
2022/11/13 02:18:42;;;;;;;30.50;18.35;;;4.40;99.90;;;;;;5034227;28;20373;-64
2022/11/13 02:21:31;;;;;;;27.38;17.08;;;4.40;99.90;;;;;;5028378;28;20049;-65
2022/11/13 02:24:22;;;;;;;27.60;16.27;;;4.40;99.90;;;;;;5032273;28;20041;-64
2022/11/13 02:26:49;;;;;;;23.55;15.43;;;4.30;99.90;;;;;;5027665;28;20060;-65
2022/11/13 02:29:15;;;;;;;25.60;15.25;;;4.30;99.90;;;;;;5041550;28;20045;-64
2022/11/13 02:31:40;;;;;;;21.85;15.88;;;4.20;99.90;;;;;;5040081;28;20041;-64
2022/11/13 02:34:06;;;;;;;22.45;14.85;;;4.20;99.90;;;;;;5030039;28;20045;-64
2022/11/13 02:36:34;;;;;;;24.35;15.68;;;4.20;99.90;;;;;;5035232;28;20060;-64
2022/11/13 02:39:04;;;;;;;30.30;17.70;;;4.20;99.90;;;;;;5033513;28;20045;-64
2022/11/13 02:41:30;;;;;;;35.67;20.20;;;4.20;99.90;;;;;;5032908;28;20033;-64
2022/11/13 02:43:55;;;;;;;35.95;20.05;;;4.30;99.90;;;;;;5038830;28;20056;-64
2022/11/13 02:46:21;;;;;;;33.55;20.45;;;4.30;99.90;;;;;;5036550;28;20354;-64
2022/11/13 02:48:46;;;;;;;36.45;19.67;;;4.40;99.90;;;;;;5031004;28;20414;-64
2022/11/13 02:51:13;;;;;;;32.92;20.77;;;4.50;99.90;;;;;;5033077;28;20045;-64
2022/11/13 02:53:38;;;;;;;35.00;20.38;;;4.60;99.90;;;;;;5037611;28;20052;-64
2022/11/13 02:56:04;;;;;;;33.10;20.98;;;4.60;99.90;;;;;;5030163;28;20041;-63
2022/11/13 02:58:30;;;;;;;37.45;21.98;;;4.70;99.90;;;;;;5035742;28;20044;-64
2022/11/13 03:00:55;;;;;;;42.65;22.48;;;4.80;99.90;;;;;;5035776;28;20033;-63
2022/11/13 03:03:21;;;;;;;44.65;23.77;;;4.80;99.90;;;;;;5039624;28;20037;-64
2022/11/13 03:05:48;;;;;;;39.97;22.90;;;4.90;99.90;;;;;;5033679;28;20513;-64
2022/11/13 03:08:14;;;;;;;37.95;22.10;;;5.00;99.90;;;;;;5042788;28;20390;-64
2022/11/13 03:10:40;;;;;;;37.55;22.90;;;5.00;99.90;;;;;;5035680;28;20457;-64
2022/11/13 03:13:06;;;;;;;35.10;20.98;;;5.00;99.90;;;;;;5041925;28;20094;-64
2022/11/13 03:15:33;;;;;;;39.58;22.30;;;5.10;99.90;;;;;;5046372;28;20033;-65
2022/11/13 03:18:02;;;;;;;41.65;23.15;;;5.10;99.90;;;;;;5031725;28;20506;-64
2022/11/13 03:20:28;;;;;;;39.30;21.17;;;5.10;99.90;;;;;;5033738;28;20036;-64
2022/11/13 03:22:54;;;;;;;41.92;23.67;;;5.10;99.90;;;;;;5034034;28;20070;-64
2022/11/13 03:25:19;;;;;;;40.58;22.88;;;5.10;99.90;;;;;;5037739;28;20122;-64
2022/11/13 03:27:45;;;;;;;39.08;22.40;;;5.10;99.90;;;;;;5042279;28;20037;-64
2022/11/13 03:30:10;;;;;;;40.42;23.83;;;5.10;99.90;;;;;;5033629;28;20477;-64
2022/11/13 03:32:36;;;;;;;37.60;22.15;;;5.10;99.90;;;;;;5038899;28;20485;-64
2022/11/13 03:35:02;;;;;;;37.70;21.73;;;5.20;99.90;;;;;;5049260;28;20071;-65
2022/11/13 03:37:27;;;;;;;38.03;22.40;;;5.20;99.90;;;;;;5042982;28;20504;-65
2022/11/13 03:39:53;;;;;;;36.88;23.15;;;5.20;99.90;;;;;;5033730;28;20447;-65
2022/11/13 03:42:18;;;;;;;38.45;21.75;;;5.20;99.90;;;;;;5036581;28;20045;-64
2022/11/13 03:44:44;;;;;;;37.65;21.08;;;5.20;99.90;;;;;;5036989;28;20044;-64
2022/11/13 03:47:10;;;;;;;38.88;21.73;;;5.20;99.90;;;;;;5037404;28;20425;-64
2022/11/13 03:49:35;;;;;;;39.08;22.30;;;5.10;99.90;;;;;;5039632;28;20627;-64
2022/11/13 03:52:01;;;;;;;30.88;19.92;;;5.20;99.90;;;;;;5038099;28;20048;-65
2022/11/13 03:54:26;;;;;;;36.75;20.67;;;5.10;99.90;;;;;;5038499;28;20528;-65
2022/11/13 03:56:52;;;;;;;33.50;20.35;;;5.10;99.90;;;;;;5031733;28;20512;-64
2022/11/13 03:59:17;;;;;;;37.50;20.95;;;5.10;99.90;;;;;;5035053;28;20045;-64
2022/11/13 04:01:43;;;;;;;33.45;19.88;;;5.10;99.90;;;;;;5030854;28;20041;-64
2022/11/13 04:04:09;;;;;;;35.00;20.42;;;5.10;99.90;;;;;;5028435;28;20080;-65
2022/11/13 04:06:35;;;;;;;35.90;20.45;;;5.10;99.90;;;;;;5030419;28;20064;-65
2022/11/13 04:09:01;;;;;;;34.67;19.63;;;5.10;99.90;;;;;;5045379;28;20477;-64
2022/11/13 04:11:27;;;;;;;35.28;19.50;;;5.00;99.90;;;;;;5032548;28;20048;-64
2022/11/13 04:13:52;;;;;;;33.28;20.08;;;5.00;99.90;;;;;;5029197;28;20049;-64
2022/11/13 04:16:18;;;;;;;29.90;18.05;;;4.90;99.90;;;;;;5033223;28;20032;-64
2022/11/13 04:18:43;;;;;;;33.35;18.15;;;4.80;99.90;;;;;;5033693;28;20029;-65
2022/11/13 04:21:09;;;;;;;30.42;16.50;;;4.70;99.90;;;;;;5030078;28;20163;-64
2022/11/13 04:23:34;;;;;;;29.02;16.30;;;4.70;99.90;;;;;;5035454;28;20045;-64
2022/11/13 04:26:00;;;;;;;28.05;16.55;;;4.60;99.90;;;;;;5030891;28;20037;-64
2022/11/13 04:28:25;;;;;;;25.98;16.73;;;4.60;99.90;;;;;;5014625;28;20099;-64
2022/11/13 04:30:54;;;;;;;26.42;16.63;;;4.50;99.90;;;;;;5029990;28;20037;-64
2022/11/13 04:33:20;;;;;;;30.85;17.42;;;4.50;99.90;;;;;;5032482;28;20037;-65
2022/11/13 04:35:47;;;;;;;28.45;17.55;;;4.60;99.90;;;;;;5030067;28;20377;-65
2022/11/13 04:38:12;;;;;;;27.70;16.42;;;4.60;99.90;;;;;;5031924;28;20041;-64
2022/11/13 04:40:39;;;;;;;23.85;15.32;;;4.60;99.90;;;;;;5039551;28;20048;-64
2022/11/13 04:43:04;;;;;;;24.00;15.38;;;4.60;99.90;;;;;;5029638;28;20041;-65
2022/11/13 04:45:30;;;;;;;25.88;15.35;;;4.50;99.90;;;;;;5036232;28;20037;-64
2022/11/13 04:47:56;;;;;;;24.20;15.43;;;4.50;99.90;;;;;;5031012;28;20040;-64
2022/11/13 04:50:22;;;;;;;28.83;17.15;;;4.50;99.90;;;;;;5029936;28;20132;-64
2022/11/13 04:52:47;;;;;;;27.90;16.60;;;4.50;99.90;;;;;;5034378;28;20033;-64
2022/11/13 04:55:13;;;;;;;22.17;15.10;;;4.30;99.90;;;;;;5038202;28;20049;-64
2022/11/13 04:57:40;;;;;;;25.77;15.18;;;4.30;99.90;;;;;;5028972;28;20029;-65
2022/11/13 05:00:07;;;;;;;27.15;15.50;;;4.20;99.90;;;;;;5029500;28;20377;-64
2022/11/13 05:02:33;;;;;;;23.98;15.32;;;4.20;99.90;;;;;;5029764;28;20041;-64
2022/11/13 05:04:58;;;;;;;23.35;15.27;;;4.20;99.90;;;;;;5036723;28;20064;-64
2022/11/13 05:07:25;;;;;;;23.52;15.57;;;4.20;99.90;;;;;;5028270;28;20041;-65
2022/11/13 05:09:51;;;;;;;23.85;14.60;;;4.20;99.90;;;;;;5030871;28;20377;-64
2022/11/13 05:12:17;;;;;;;23.52;15.43;;;4.10;99.90;;;;;;5029053;28;20072;-65
2022/11/13 05:14:42;;;;;;;22.48;14.93;;;4.10;99.90;;;;;;5036177;28;20457;-64
2022/11/13 05:17:10;;;;;;;23.88;15.25;;;4.00;99.90;;;;;;5029667;28;20497;-65
2022/11/13 05:19:36;;;;;;;26.70;15.32;;;4.00;99.90;;;;;;5028293;28;20060;-65
2022/11/13 05:22:02;;;;;;;27.33;15.70;;;3.90;99.90;;;;;;5028609;28;20397;-64
2022/11/13 05:24:27;;;;;;;22.48;15.70;;;3.90;99.90;;;;;;5027499;28;20496;-64
2022/11/13 05:26:53;;;;;;;26.30;15.20;;;3.80;99.90;;;;;;5030218;28;20041;-65
2022/11/13 05:29:19;;;;;;;23.92;13.95;;;3.80;99.90;;;;;;5039199;28;20041;-64
2022/11/13 05:31:45;;;;;;;24.65;15.18;;;3.70;99.90;;;;;;5031574;28;20159;-64
2022/11/13 05:34:11;;;;;;;21.42;14.20;;;3.70;99.90;;;;;;5033957;28;20078;-64
2022/11/13 05:36:36;;;;;;;23.73;14.98;;;3.70;99.90;;;;;;5038478;28;20438;-64
2022/11/13 05:39:02;;;;;;;25.58;14.93;;;3.70;99.90;;;;;;5038303;28;20033;-65
2022/11/13 05:41:28;;;;;;;23.92;14.60;;;3.60;99.90;;;;;;5027774;28;20512;-64
2022/11/13 05:43:54;;;;;;;24.95;15.30;;;3.60;99.90;;;;;;5037106;28;20099;-64
2022/11/13 05:46:22;;;;;;;24.48;15.55;;;3.60;99.90;;;;;;5030772;28;20045;-64
2022/11/13 05:48:52;;;;;;;21.05;14.52;;;3.60;99.90;;;;;;5030348;28;20078;-65
2022/11/13 05:51:21;;;;;;;23.05;14.50;;;3.60;99.90;;;;;;5030811;28;20138;-65
2022/11/13 05:53:47;;;;;;;23.27;13.27;;;3.60;99.90;;;;;;5028886;28;20044;-65
2022/11/13 05:56:13;;;;;;;30.77;13.95;;;3.70;99.90;;;;;;5030851;28;20045;-64
2022/11/13 05:58:41;;;;;;;26.98;12.52;;;3.60;99.90;;;;;;5029911;28;20461;-65
2022/11/13 06:01:14;;;;;;;59.75;14.38;;;3.60;99.90;;;;;;5029467;28;20124;-64
2022/11/13 06:03:40;;;;;;;16.98;11.07;;;3.60;99.90;;;;;;5031833;28;20044;-65
2022/11/13 06:06:09;;;;;;;18.40;12.10;;;3.50;99.90;;;;;;5039201;28;20065;-64
2022/11/13 06:08:35;;;;;;;16.45;12.38;;;3.50;99.90;;;;;;5032606;28;20409;-64
2022/11/13 06:11:02;;;;;;;19.00;12.93;;;3.50;99.90;;;;;;5028750;28;20044;-64
2022/11/13 06:13:28;;;;;;;19.25;12.40;;;3.50;99.90;;;;;;5035475;28;20052;-65
2022/11/13 06:15:59;;;;;;;18.27;12.40;;;3.40;99.90;;;;;;5036389;28;20461;-64
2022/11/13 06:18:24;;;;;;;18.13;12.77;;;3.40;99.90;;;;;;5035504;28;20034;-64
2022/11/13 06:20:50;;;;;;;17.75;12.68;;;3.30;99.90;;;;;;5033747;28;20038;-64
2022/11/13 06:23:16;;;;;;;22.67;14.43;;;3.30;99.90;;;;;;5029964;28;20517;-64
2022/11/13 06:25:41;;;;;;;20.48;13.35;;;3.30;99.90;;;;;;5035357;28;20040;-65
2022/11/13 06:28:07;;;;;;;20.45;12.73;;;3.30;99.90;;;;;;5025584;28;20041;-64
2022/11/13 06:30:32;;;;;;;19.58;12.90;;;3.40;99.90;;;;;;5027805;28;20137;-65
2022/11/13 06:32:58;;;;;;;20.55;12.95;;;3.40;99.90;;;;;;5032645;28;20025;-65
2022/11/13 06:35:24;;;;;;;25.55;13.70;;;3.40;99.90;;;;;;5032508;28;20073;-64
2022/11/13 06:37:49;;;;;;;18.17;12.27;;;3.50;99.90;;;;;;5043814;28;20123;-64
2022/11/13 06:40:15;;;;;;;17.90;12.55;;;3.50;99.90;;;;;;5033626;28;20092;-64
2022/11/13 06:42:40;;;;;;;15.07;11.05;;;3.50;99.90;;;;;;5053073;28;20057;-64
2022/11/13 06:45:07;;;;;;;17.55;11.65;;;3.40;99.90;;;;;;5047983;28;20056;-64
2022/11/13 06:47:33;;;;;;;15.68;11.45;;;3.40;99.90;;;;;;5049213;28;20717;-65
2022/11/13 06:49:58;;;;;;;18.42;11.82;;;3.40;99.90;;;;;;5040293;28;20052;-64
2022/11/13 06:52:24;;;;;;;19.15;13.05;;;3.40;99.90;;;;;;5039854;28;20041;-64
2022/11/13 06:54:49;;;;;;;18.33;12.23;;;3.40;99.90;;;;;;5040605;28;20557;-64
2022/11/13 06:57:15;;;;;;;21.10;13.73;;;3.40;99.90;;;;;;5045056;28;20580;-64
2022/11/13 06:59:42;;;;;;;21.50;13.55;;;3.40;99.90;;;;;;5041314;28;20113;-64
2022/11/13 07:02:10;;;;;;;20.05;13.20;;;3.40;99.90;;;;;;5036134;28;20412;-64
2022/11/13 07:04:36;;;;;;;25.05;14.77;;;3.40;99.90;;;;;;5052516;28;20045;-64
2022/11/13 07:07:03;;;;;;;19.30;12.18;;;3.40;99.90;;;;;;5047117;28;20041;-64
2022/11/13 07:09:29;;;;;;;20.25;13.38;;;3.40;99.90;;;;;;5045994;28;20107;-64
2022/11/13 07:11:54;;;;;;;21.83;13.57;;;3.40;99.90;;;;;;5036248;28;20488;-64
2022/11/13 07:14:20;;;;;;;18.15;12.10;;;3.40;99.90;;;;;;5044570;28;20044;-64
2022/11/13 07:16:45;;;;;;;20.83;13.05;;;3.40;99.90;;;;;;5034059;28;20041;-64
2022/11/13 07:19:11;;;;;;;21.08;14.02;;;3.40;99.90;;;;;;5032969;28;20047;-64
2022/11/13 07:21:37;;;;;;;22.27;14.10;;;3.40;99.90;;;;;;5032797;28;20052;-63
2022/11/13 07:24:02;;;;;;;22.35;13.75;;;3.40;99.90;;;;;;5037234;28;20047;-64
2022/11/13 07:26:28;;;;;;;24.80;14.82;;;3.40;99.90;;;;;;5045661;28;20038;-64
2022/11/13 07:28:53;;;;;;;21.25;14.05;;;3.40;99.90;;;;;;5040889;28;20037;-64
2022/11/13 07:31:20;;;;;;;22.10;14.07;;;3.40;99.90;;;;;;5033227;28;20060;-64
2022/11/13 07:33:48;;;;;;;19.52;12.70;;;3.40;99.90;;;;;;5031778;28;20091;-64
2022/11/13 07:36:14;;;;;;;20.05;13.57;;;3.50;99.90;;;;;;5038275;28;20450;-64
2022/11/13 07:38:39;;;;;;;20.10;13.63;;;3.50;99.90;;;;;;5032055;28;20065;-64
2022/11/13 07:41:06;;;;;;;20.42;11.75;;;3.50;99.90;;;;;;5033390;28;20045;-64
2022/11/13 07:43:31;;;;;;;26.02;15.10;;;3.50;99.90;;;;;;5033539;28;20037;-64
2022/11/13 07:45:58;;;;;;;22.92;13.35;;;3.60;99.90;;;;;;5041650;28;20087;-64
2022/11/13 07:48:24;;;;;;;19.80;13.43;;;3.60;99.90;;;;;;5037101;28;20084;-64
2022/11/13 07:50:50;;;;;;;25.30;15.57;;;3.70;99.90;;;;;;5030936;28;20129;-65
2022/11/13 07:53:16;;;;;;;24.67;14.13;;;3.70;99.90;;;;;;5039833;28;22811;-64
2022/11/13 07:55:42;;;;;;;23.63;15.23;;;3.70;99.90;;;;;;5039057;28;20508;-65
2022/11/13 07:58:08;;;;;;;26.48;15.43;;;3.80;99.90;;;;;;5039589;28;20033;-64
2022/11/13 08:00:34;;;;;;;24.80;15.80;;;3.80;99.90;;;;;;5056134;28;20038;-64
2022/11/13 08:03:08;;;;;;;25.25;15.18;;;3.90;99.90;;;;;;5033452;28;20043;-64
2022/11/13 08:05:34;;;;;;;23.25;14.90;;;4.00;99.90;;;;;;5044163;28;20099;-65
2022/11/13 08:08:00;;;;;;;24.67;15.38;;;4.10;99.90;;;;;;5034486;28;20041;-64
2022/11/13 08:10:26;;;;;;;25.20;16.20;;;4.30;99.90;;;;;;5030648;28;20048;-65
2022/11/13 08:13:06;;;;;;;27.30;16.02;;;4.40;99.90;;;;;;5032246;28;20038;-65
2022/11/13 08:15:33;;;;;;;24.73;15.25;;;4.40;99.90;;;;;;5038462;28;20060;-66
2022/11/13 08:18:00;;;;;;;26.52;15.10;;;4.50;99.90;;;;;;5034044;28;20469;-65
2022/11/13 08:20:27;;;;;;;23.90;15.07;;;4.60;99.90;;;;;;5032108;28;20423;-65
2022/11/13 08:22:57;;;;;;;24.30;15.48;;;4.60;99.90;;;;;;5048015;28;20042;-65
2022/11/13 08:25:22;;;;;;;27.73;15.27;;;4.70;99.90;;;;;;5037147;28;20034;-65
2022/11/13 08:27:50;;;;;;;24.98;14.85;;;4.70;99.90;;;;;;5048305;28;20090;-65
2022/11/13 08:30:16;;;;;;;22.77;15.02;;;4.80;99.90;;;;;;5047701;28;20470;-65
2022/11/13 08:32:42;;;;;;;24.05;14.85;;;4.90;99.90;;;;;;5031068;28;20045;-65
2022/11/13 08:35:07;;;;;;;23.25;15.65;;;4.90;99.90;;;;;;5046820;28;20037;-65
2022/11/13 08:37:33;;;;;;;24.73;14.60;;;4.90;99.90;;;;;;5067318;28;20032;-64
2022/11/13 08:39:58;;;;;;;26.85;16.67;;;5.10;99.90;;;;;;5047799;28;20025;-65
2022/11/13 08:42:24;;;;;;;26.60;16.15;;;5.10;99.90;;;;;;5048726;28;20072;-65
2022/11/13 08:44:50;;;;;;;25.83;14.88;;;5.20;99.90;;;;;;5048529;28;20032;-64
2022/11/13 08:47:15;;;;;;;24.27;16.40;;;5.20;99.90;;;;;;5058537;28;20087;-65
2022/11/13 08:49:41;;;;;;;23.30;15.63;;;5.30;99.90;;;;;;5032532;28;20045;-64
2022/11/13 08:52:06;;;;;;;28.35;17.50;;;5.30;99.90;;;;;;5031793;28;20128;-64
2022/11/13 08:54:32;;;;;;;25.80;16.05;;;5.40;99.90;;;;;;5039238;28;20048;-65
2022/11/13 08:56:57;;;;;;;25.67;16.23;;;5.50;99.90;;;;;;5029539;28;20448;-65
2022/11/13 08:59:23;;;;;;;24.02;15.95;;;5.60;99.90;;;;;;5030511;28;20069;-65
2022/11/13 09:01:49;;;;;;;22.15;15.98;;;5.70;99.90;;;;;;5037744;28;20049;-65
2022/11/13 09:04:15;;;;;;;26.95;16.20;;;5.90;99.90;;;;;;5031642;28;20037;-65
2022/11/13 09:06:40;;;;;;;22.25;15.25;;;6.00;99.90;;;;;;5033144;28;20049;-65
2022/11/13 09:09:06;;;;;;;22.50;15.82;;;6.10;99.90;;;;;;5037102;28;20045;-64
2022/11/13 09:11:32;;;;;;;20.75;15.40;;;6.20;99.90;;;;;;5052971;28;20087;-64
2022/11/13 09:13:58;;;;;;;25.73;15.95;;;6.20;99.90;;;;;;5047383;28;20091;-64
2022/11/13 09:16:24;;;;;;;22.05;15.57;;;6.20;99.90;;;;;;5045522;28;20041;-64
2022/11/13 09:18:50;;;;;;;23.40;15.43;;;6.30;99.90;;;;;;5030699;28;20124;-65
2022/11/13 09:21:16;;;;;;;26.10;15.68;;;6.40;99.90;;;;;;5031528;28;20551;-65
2022/11/13 09:23:42;;;;;;;21.35;15.32;;;6.40;99.90;;;;;;5032393;28;20448;-65
2022/11/13 09:26:08;;;;;;;21.92;15.38;;;6.50;99.90;;;;;;5030952;28;20041;-65
2022/11/13 09:28:34;;;;;;;22.95;16.08;;;6.50;99.90;;;;;;5033045;28;20037;-65
2022/11/13 09:31:03;;;;;;;22.52;16.05;;;6.50;99.90;;;;;;5030480;28;20037;-64
2022/11/13 09:33:29;;;;;;;20.65;14.43;;;6.60;99.90;;;;;;5030018;28;20040;-64
2022/11/13 09:35:55;;;;;;;22.83;15.45;;;6.70;99.90;;;;;;5046667;28;20038;-65
2022/11/13 09:38:20;;;;;;;22.08;15.38;;;6.80;99.90;;;;;;5030446;28;20048;-64
2022/11/13 09:40:53;;;;;;;24.88;16.40;;;6.80;99.90;;;;;;5040896;28;20047;-64
2022/11/13 09:43:32;;;;;;;20.90;15.30;;;7.00;99.90;;;;;;5038467;28;20045;-65
2022/11/13 09:46:04;;;;;;;22.33;15.30;;;7.10;99.90;;;;;;5031442;28;20049;-64
2022/11/13 09:48:37;;;;;;;21.02;15.60;;;7.30;99.90;;;;;;5033618;28;20400;-64
2022/11/13 09:51:10;;;;;;;22.15;14.93;;;7.40;99.90;;;;;;5042165;28;20167;-65
2022/11/13 09:53:38;;;;;;;19.98;15.90;;;7.40;99.90;;;;;;5036156;28;20608;-64
2022/11/13 09:56:48;;;;;;;22.65;15.38;;;7.50;99.90;;;;;;5031725;28;20045;-65
2022/11/13 09:59:26;;;;;;;25.95;16.40;;;7.60;99.90;;;;;;4986788;28;20152;-64
2022/11/13 10:02:08;;;;;;;20.77;15.18;;;7.60;99.90;;;;;;5032910;28;20427;-64
2022/11/13 10:04:45;;;;;;;21.65;15.00;;;7.70;99.90;;;;;;5037163;28;20052;-65
2022/11/13 10:07:43;;;;;;;18.70;14.27;;;7.70;99.90;;;;;;5030770;28;20234;-64
2022/11/13 10:10:27;;;;;;;19.58;14.38;;;7.70;99.90;;;;;;5039923;28;20099;-65
2022/11/13 10:12:55;;;;;;;22.80;15.07;;;7.80;99.90;;;;;;5047253;28;20045;-64
2022/11/13 10:15:21;;;;;;;26.00;16.30;;;7.80;99.90;;;;;;5044142;28;20045;-64
2022/11/13 10:17:59;;;;;;;20.50;15.07;;;7.90;99.90;;;;;;5030866;28;20038;-65
2022/11/13 10:20:49;;;;;;;21.02;14.68;;;8.00;99.90;;;;;;5044067;28;20124;-64
2022/11/13 10:23:36;;;;;;;21.88;15.48;;;8.00;99.90;;;;;;5049508;28;20472;-64
2022/11/13 10:26:19;;;;;;;22.10;15.13;;;8.10;99.90;;;;;;5032374;28;20049;-64
2022/11/13 10:28:46;;;;;;;20.65;14.82;;;8.10;99.90;;;;;;5028111;28;20057;-65
2022/11/13 10:31:12;;;;;;;19.95;14.38;;;8.20;99.90;;;;;;5031046;28;20184;-64
2022/11/13 10:33:38;;;;;;;19.85;12.98;;;8.40;99.90;;;;;;5050073;28;20046;-65
2022/11/13 10:36:13;;;;;;;17.67;13.38;;;8.50;99.90;;;;;;5050941;28;20041;-64
2022/11/13 10:38:43;;;;;;;19.77;14.43;;;8.70;99.90;;;;;;5045556;28;20033;-64
2022/11/13 10:41:17;;;;;;;16.25;12.82;;;8.80;99.90;;;;;;5047202;28;20052;-64
2022/11/13 10:43:57;;;;;;;16.90;12.50;;;8.90;99.90;;;;;;5037878;28;20056;-64
2022/11/13 10:46:30;;;;;;;20.63;13.70;;;8.90;99.90;;;;;;5030216;28;20029;-64
2022/11/13 10:49:12;;;;;;;18.40;13.07;;;9.10;99.90;;;;;;5034516;28;20646;-65
2022/11/13 10:51:38;;;;;;;18.13;12.55;;;9.20;99.90;;;;;;5036996;28;20048;-64
2022/11/13 10:54:24;;;;;;;18.95;13.23;;;9.30;99.90;;;;;;5051145;28;20061;-64
2022/11/13 10:57:02;;;;;;;18.52;13.52;;;9.40;99.90;;;;;;5030840;28;20538;-64
2022/11/13 10:59:39;;;;;;;19.50;13.02;;;9.60;99.90;;;;;;5029941;28;20054;-64
2022/11/13 11:02:15;;;;;;;16.55;12.43;;;9.60;99.90;;;;;;5025861;28;20049;-65
2022/11/13 11:04:40;;;;;;;16.70;12.68;;;9.70;99.90;;;;;;5030542;28;20481;-65
2022/11/13 11:07:18;;;;;;;15.13;12.10;;;9.70;99.90;;;;;;5040237;28;20085;-64
2022/11/13 11:09:46;;;;;;;14.57;11.27;;;9.70;99.90;;;;;;5042207;28;20107;-64
2022/11/13 11:12:22;;;;;;;14.60;11.10;;;9.80;99.90;;;;;;5036740;28;20124;-64
2022/11/13 11:15:00;;;;;;;15.82;11.50;;;9.90;99.90;;;;;;5030488;28;20072;-65
2022/11/13 11:17:28;;;;;;;18.08;11.40;;;9.90;99.90;;;;;;5030228;28;20037;-64
2022/11/13 11:20:03;;;;;;;15.85;11.30;;;9.90;99.90;;;;;;5041262;28;20104;-64
2022/11/13 11:22:33;;;;;;;14.18;10.05;;;10.00;99.90;;;;;;5035704;28;20049;-65
2022/11/13 11:25:29;;;;;;;14.18;10.40;;;10.10;99.90;;;;;;5043850;28;20041;-65
2022/11/13 11:28:05;;;;;;;12.85;10.30;;;10.20;99.90;;;;;;5048609;28;20103;-64
2022/11/13 11:30:42;;;;;;;12.32;9.75;;;10.20;99.90;;;;;;5048506;28;20064;-65
2022/11/13 11:33:30;;;;;;;11.68;9.52;;;10.30;99.90;;;;;;5043572;28;20421;-65
2022/11/13 11:36:19;;;;;;;15.15;9.90;;;10.40;99.90;;;;;;5047254;28;20036;-65
2022/11/13 11:38:50;;;;;;;16.30;10.57;;;10.50;99.90;;;;;;5045008;28;20033;-64
2022/11/13 11:41:19;;;;;;;13.93;9.73;;;10.60;99.90;;;;;;5042877;28;20056;-65
2022/11/13 11:44:01;;;;;;;13.25;9.95;;;10.60;99.90;;;;;;5045125;28;20043;-65
2022/11/13 11:46:28;;;;;;;15.60;9.55;;;10.70;99.90;;;;;;5043730;28;20136;-65
2022/11/13 11:49:00;;;;;;;14.00;9.23;;;10.70;99.90;;;;;;5050710;28;20032;-65
2022/11/13 11:51:59;;;;;;;11.15;8.20;;;10.80;99.90;;;;;;5048871;28;20048;-65
2022/11/13 11:54:32;;;;;;;12.25;8.73;;;10.90;99.90;;;;;;5047258;28;20045;-65
2022/11/13 11:57:21;;;;;;;10.90;8.43;;;11.00;99.90;;;;;;5050121;28;20045;-66
2022/11/13 11:59:57;;;;;;;12.80;8.73;;;11.00;99.90;;;;;;5022067;28;20041;-65
2022/11/13 12:03:03;;;;;;;12.65;9.32;;;11.10;99.90;;;;;;5035154;28;20049;-65
2022/11/13 12:06:01;;;;;;;11.98;8.80;;;11.10;99.90;;;;;;5039187;28;20117;-65
2022/11/13 12:08:51;;;;;;;12.27;9.13;;;11.10;99.90;;;;;;5033068;28;20099;-64
2022/11/13 12:11:26;;;;;;;12.57;9.00;;;11.20;99.90;;;;;;5036774;28;20096;-65
2022/11/13 12:14:02;;;;;;;12.55;9.25;;;11.20;99.90;;;;;;5044703;28;20037;-64
2022/11/13 12:17:06;;;;;;;12.25;9.63;;;11.20;99.90;;;;;;5037002;28;20033;-65
2022/11/13 12:19:59;;;;;;;12.90;9.02;;;11.30;99.90;;;;;;5032396;28;20065;-65
2022/11/13 12:22:35;;;;;;;14.88;10.02;;;11.30;99.90;;;;;;5031191;28;20052;-65
2022/11/13 12:25:54;;;;;;;11.82;9.27;;;11.20;99.90;;;;;;5033642;28;20084;-64
2022/11/13 12:28:30;;;;;;;12.52;9.80;;;11.30;99.90;;;;;;5031647;28;20146;-65
2022/11/13 12:31:04;;;;;;;12.63;8.93;;;11.30;99.90;;;;;;5031551;28;20038;-64
2022/11/13 12:33:43;;;;;;;17.75;10.48;;;11.30;99.90;;;;;;5032166;28;20064;-64
2022/11/13 12:36:10;;;;;;;12.50;8.88;;;11.30;99.90;;;;;;5034655;28;20048;-65
2022/11/13 12:38:42;;;;;;;11.35;9.30;;;11.30;99.90;;;;;;5038958;28;20103;-65
2022/11/13 12:41:13;;;;;;;12.18;9.45;;;11.40;99.90;;;;;;5048611;28;20037;-64
2022/11/13 12:43:42;;;;;;;11.82;9.27;;;11.40;99.90;;;;;;5044860;28;20064;-64
2022/11/13 12:46:10;;;;;;;14.52;9.60;;;11.40;99.90;;;;;;5045515;28;20037;-65